sensor_id;sensor_type;location;lat;lon;timestamp;temperature;humidity
51215;DHT22;63849;47.546;19.254;2023-03-01T00:01:28;3.90;67.60
51215;DHT22;63849;47.546;19.254;2023-03-01T00:03:55;3.80;67.70
51215;DHT22;63849;47.546;19.254;2023-03-01T00:06:22;3.80;68.30
51215;DHT22;63849;47.546;19.254;2023-03-01T00:08:48;3.90;67.50
51215;DHT22;63849;47.546;19.254;2023-03-01T00:11:15;4.00;67.20
51215;DHT22;63849;47.546;19.254;2023-03-01T00:13:43;3.90;67.40
51215;DHT22;63849;47.546;19.254;2023-03-01T00:16:13;3.80;67.70
51215;DHT22;63849;47.546;19.254;2023-03-01T00:18:39;3.90;67.40
51215;DHT22;63849;47.546;19.254;2023-03-01T00:21:05;3.90;67.30
51215;DHT22;63849;47.546;19.254;2023-03-01T00:23:33;3.90;67.50
51215;DHT22;63849;47.546;19.254;2023-03-01T00:25:59;4.00;67.60
51215;DHT22;63849;47.546;19.254;2023-03-01T00:28:25;4.00;67.50
51215;DHT22;63849;47.546;19.254;2023-03-01T00:30:51;4.00;67.20
51215;DHT22;63849;47.546;19.254;2023-03-01T00:33:17;4.00;67.50
51215;DHT22;63849;47.546;19.254;2023-03-01T00:35:42;3.90;67.70
51215;DHT22;63849;47.546;19.254;2023-03-01T00:38:12;3.90;67.40
51215;DHT22;63849;47.546;19.254;2023-03-01T00:40:38;3.90;67.60
51215;DHT22;63849;47.546;19.254;2023-03-01T00:43:04;4.00;67.40
51215;DHT22;63849;47.546;19.254;2023-03-01T00:45:30;3.90;67.30
51215;DHT22;63849;47.546;19.254;2023-03-01T00:47:59;3.90;67.30
51215;DHT22;63849;47.546;19.254;2023-03-01T00:50:24;3.90;67.30
51215;DHT22;63849;47.546;19.254;2023-03-01T00:52:54;3.90;67.30
51215;DHT22;63849;47.546;19.254;2023-03-01T00:55:21;4.00;67.50
51215;DHT22;63849;47.546;19.254;2023-03-01T00:57:47;4.00;67.30
51215;DHT22;63849;47.546;19.254;2023-03-01T01:00:13;4.00;67.60
51215;DHT22;63849;47.546;19.254;2023-03-01T01:02:39;4.10;67.70
51215;DHT22;63849;47.546;19.254;2023-03-01T01:05:06;4.20;67.50
51215;DHT22;63849;47.546;19.254;2023-03-01T01:07:31;4.10;67.40
51215;DHT22;63849;47.546;19.254;2023-03-01T01:09:58;4.10;67.40
51215;DHT22;63849;47.546;19.254;2023-03-01T01:12:25;4.10;67.60
51215;DHT22;63849;47.546;19.254;2023-03-01T01:14:50;4.00;67.80
51215;DHT22;63849;47.546;19.254;2023-03-01T01:17:16;4.00;68.10
51215;DHT22;63849;47.546;19.254;2023-03-01T01:19:42;4.00;67.60
51215;DHT22;63849;47.546;19.254;2023-03-01T01:22:09;4.00;67.90
51215;DHT22;63849;47.546;19.254;2023-03-01T01:24:35;4.00;67.90
51215;DHT22;63849;47.546;19.254;2023-03-01T01:27:01;3.90;68.20
51215;DHT22;63849;47.546;19.254;2023-03-01T01:29:27;4.10;67.50
51215;DHT22;63849;47.546;19.254;2023-03-01T01:31:52;4.00;67.80
51215;DHT22;63849;47.546;19.254;2023-03-01T01:34:20;3.90;67.60
51215;DHT22;63849;47.546;19.254;2023-03-01T01:36:53;3.90;67.70
51215;DHT22;63849;47.546;19.254;2023-03-01T01:39:20;3.90;67.70
51215;DHT22;63849;47.546;19.254;2023-03-01T01:41:46;3.80;67.80
51215;DHT22;63849;47.546;19.254;2023-03-01T01:44:22;3.90;67.70
51215;DHT22;63849;47.546;19.254;2023-03-01T01:47:02;3.90;67.70
51215;DHT22;63849;47.546;19.254;2023-03-01T01:52:09;3.80;67.90
51215;DHT22;63849;47.546;19.254;2023-03-01T01:57:15;3.90;67.70
51215;DHT22;63849;47.546;19.254;2023-03-01T01:59:45;3.80;68.20
51215;DHT22;63849;47.546;19.254;2023-03-01T02:02:12;3.80;68.20
51215;DHT22;63849;47.546;19.254;2023-03-01T02:04:38;3.90;68.00
51215;DHT22;63849;47.546;19.254;2023-03-01T02:07:17;3.90;67.90
51215;DHT22;63849;47.546;19.254;2023-03-01T02:09:47;4.00;67.80
51215;DHT22;63849;47.546;19.254;2023-03-01T02:12:15;4.00;67.70
51215;DHT22;63849;47.546;19.254;2023-03-01T02:14:42;4.00;67.60
51215;DHT22;63849;47.546;19.254;2023-03-01T02:17:10;3.90;67.70
51215;DHT22;63849;47.546;19.254;2023-03-01T02:19:49;3.90;67.60
51215;DHT22;63849;47.546;19.254;2023-03-01T02:22:28;3.80;68.00
51215;DHT22;63849;47.546;19.254;2023-03-01T02:30:20;3.80;68.50
51215;DHT22;63849;47.546;19.254;2023-03-01T02:32:47;3.80;69.00
51215;DHT22;63849;47.546;19.254;2023-03-01T02:35:16;3.80;68.70
51215;DHT22;63849;47.546;19.254;2023-03-01T02:37:43;3.80;68.90
51215;DHT22;63849;47.546;19.254;2023-03-01T02:40:16;3.80;68.70
51215;DHT22;63849;47.546;19.254;2023-03-01T02:42:45;3.80;69.00
51215;DHT22;63849;47.546;19.254;2023-03-01T02:45:13;3.60;69.20
51215;DHT22;63849;47.546;19.254;2023-03-01T02:47:38;3.80;69.40
51215;DHT22;63849;47.546;19.254;2023-03-01T02:50:43;3.80;68.90
51215;DHT22;63849;47.546;19.254;2023-03-01T02:53:16;3.60;69.30
51215;DHT22;63849;47.546;19.254;2023-03-01T02:55:45;3.40;70.00
51215;DHT22;63849;47.546;19.254;2023-03-01T02:58:11;3.50;70.10
51215;DHT22;63849;47.546;19.254;2023-03-01T03:00:40;3.40;70.20
51215;DHT22;63849;47.546;19.254;2023-03-01T03:03:14;3.50;70.30
51215;DHT22;63849;47.546;19.254;2023-03-01T03:05:40;3.60;70.10
51215;DHT22;63849;47.546;19.254;2023-03-01T03:08:06;3.50;70.00
51215;DHT22;63849;47.546;19.254;2023-03-01T03:10:36;3.50;70.10
51215;DHT22;63849;47.546;19.254;2023-03-01T03:13:14;3.60;69.80
51215;DHT22;63849;47.546;19.254;2023-03-01T03:15:43;3.50;70.00
51215;DHT22;63849;47.546;19.254;2023-03-01T03:18:11;3.60;69.90
51215;DHT22;63849;47.546;19.254;2023-03-01T03:20:40;3.50;70.20
51215;DHT22;63849;47.546;19.254;2023-03-01T03:23:06;3.60;70.20
51215;DHT22;63849;47.546;19.254;2023-03-01T03:25:32;3.60;70.10
51215;DHT22;63849;47.546;19.254;2023-03-01T03:27:58;3.80;69.50
51215;DHT22;63849;47.546;19.254;2023-03-01T03:30:29;3.60;69.60
51215;DHT22;63849;47.546;19.254;2023-03-01T03:32:56;3.60;70.20
51215;DHT22;63849;47.546;19.254;2023-03-01T03:35:30;3.60;70.00
51215;DHT22;63849;47.546;19.254;2023-03-01T03:37:58;3.70;70.00
51215;DHT22;63849;47.546;19.254;2023-03-01T03:40:38;3.70;70.20
51215;DHT22;63849;47.546;19.254;2023-03-01T03:43:09;3.60;70.50
51215;DHT22;63849;47.546;19.254;2023-03-01T03:45:36;3.60;70.90
51215;DHT22;63849;47.546;19.254;2023-03-01T03:48:03;3.70;70.30
51215;DHT22;63849;47.546;19.254;2023-03-01T03:50:30;3.70;70.40
51215;DHT22;63849;47.546;19.254;2023-03-01T03:52:56;3.80;70.40
51215;DHT22;63849;47.546;19.254;2023-03-01T03:55:22;3.70;70.60
51215;DHT22;63849;47.546;19.254;2023-03-01T03:57:48;3.60;71.00
51215;DHT22;63849;47.546;19.254;2023-03-01T04:00:21;3.60;71.10
51215;DHT22;63849;47.546;19.254;2023-03-01T04:02:49;3.60;71.10
51215;DHT22;63849;47.546;19.254;2023-03-01T04:05:17;3.60;71.30
51215;DHT22;63849;47.546;19.254;2023-03-01T04:07:44;3.60;71.40
51215;DHT22;63849;47.546;19.254;2023-03-01T04:10:16;3.80;71.00
51215;DHT22;63849;47.546;19.254;2023-03-01T04:12:42;3.80;70.90
51215;DHT22;63849;47.546;19.254;2023-03-01T04:15:13;3.60;71.10
51215;DHT22;63849;47.546;19.254;2023-03-01T04:17:43;3.70;71.40
51215;DHT22;63849;47.546;19.254;2023-03-01T04:20:14;3.80;71.00
51215;DHT22;63849;47.546;19.254;2023-03-01T04:22:43;3.80;70.90
51215;DHT22;63849;47.546;19.254;2023-03-01T04:25:12;3.80;70.90
51215;DHT22;63849;47.546;19.254;2023-03-01T04:27:40;3.80;71.00
51215;DHT22;63849;47.546;19.254;2023-03-01T04:30:07;3.70;71.20
51215;DHT22;63849;47.546;19.254;2023-03-01T04:32:33;3.60;71.60
51215;DHT22;63849;47.546;19.254;2023-03-01T04:35:00;3.80;71.30
51215;DHT22;63849;47.546;19.254;2023-03-01T04:37:26;3.80;71.00
51215;DHT22;63849;47.546;19.254;2023-03-01T04:39:52;3.80;70.90
51215;DHT22;63849;47.546;19.254;2023-03-01T04:42:17;3.80;71.40
51215;DHT22;63849;47.546;19.254;2023-03-01T04:44:44;3.80;71.50
51215;DHT22;63849;47.546;19.254;2023-03-01T04:47:11;3.70;71.70
51215;DHT22;63849;47.546;19.254;2023-03-01T04:49:37;3.70;71.80
51215;DHT22;63849;47.546;19.254;2023-03-01T04:52:03;3.80;71.50
51215;DHT22;63849;47.546;19.254;2023-03-01T04:54:32;3.80;71.60
51215;DHT22;63849;47.546;19.254;2023-03-01T04:56:59;3.80;71.50
51215;DHT22;63849;47.546;19.254;2023-03-01T04:59:25;3.80;71.60
51215;DHT22;63849;47.546;19.254;2023-03-01T05:01:51;3.80;71.70
51215;DHT22;63849;47.546;19.254;2023-03-01T05:04:18;3.80;71.80
51215;DHT22;63849;47.546;19.254;2023-03-01T05:06:44;3.80;71.50
51215;DHT22;63849;47.546;19.254;2023-03-01T05:09:10;3.80;71.80
51215;DHT22;63849;47.546;19.254;2023-03-01T05:11:37;3.80;71.70
51215;DHT22;63849;47.546;19.254;2023-03-01T05:14:04;3.90;71.30
51215;DHT22;63849;47.546;19.254;2023-03-01T05:16:30;3.70;72.10
51215;DHT22;63849;47.546;19.254;2023-03-01T05:18:58;3.70;72.30
51215;DHT22;63849;47.546;19.254;2023-03-01T05:21:24;3.70;72.00
51215;DHT22;63849;47.546;19.254;2023-03-01T05:23:52;3.80;72.00
51215;DHT22;63849;47.546;19.254;2023-03-01T05:26:19;3.80;72.00
51215;DHT22;63849;47.546;19.254;2023-03-01T05:28:47;3.60;72.20
51215;DHT22;63849;47.546;19.254;2023-03-01T05:31:13;3.80;72.40
51215;DHT22;63849;47.546;19.254;2023-03-01T05:33:40;3.60;72.80
51215;DHT22;63849;47.546;19.254;2023-03-01T05:36:07;3.80;72.10
51215;DHT22;63849;47.546;19.254;2023-03-01T05:38:34;3.80;72.10
51215;DHT22;63849;47.546;19.254;2023-03-01T05:40:59;3.80;71.90
51215;DHT22;63849;47.546;19.254;2023-03-01T05:43:26;4.00;71.70
51215;DHT22;63849;47.546;19.254;2023-03-01T05:45:51;3.90;71.60
51215;DHT22;63849;47.546;19.254;2023-03-01T05:48:17;4.00;71.60
51215;DHT22;63849;47.546;19.254;2023-03-01T05:50:45;3.80;71.60
51215;DHT22;63849;47.546;19.254;2023-03-01T05:53:18;3.90;71.50
51215;DHT22;63849;47.546;19.254;2023-03-01T05:55:45;3.80;72.00
51215;DHT22;63849;47.546;19.254;2023-03-01T05:58:19;3.90;71.80
51215;DHT22;63849;47.546;19.254;2023-03-01T06:00:47;3.80;71.80
51215;DHT22;63849;47.546;19.254;2023-03-01T06:03:14;3.80;71.60
51215;DHT22;63849;47.546;19.254;2023-03-01T06:05:41;3.90;71.50
51215;DHT22;63849;47.546;19.254;2023-03-01T06:08:09;3.90;71.20
51215;DHT22;63849;47.546;19.254;2023-03-01T06:10:35;4.10;70.80
51215;DHT22;63849;47.546;19.254;2023-03-01T06:13:01;4.10;70.50
51215;DHT22;63849;47.546;19.254;2023-03-01T06:15:27;4.10;70.90
51215;DHT22;63849;47.546;19.254;2023-03-01T06:18:22;4.20;70.30
51215;DHT22;63849;47.546;19.254;2023-03-01T06:20:55;4.10;70.40
51215;DHT22;63849;47.546;19.254;2023-03-01T06:23:23;4.00;70.90
51215;DHT22;63849;47.546;19.254;2023-03-01T06:25:50;4.10;70.80
51215;DHT22;63849;47.546;19.254;2023-03-01T06:28:16;4.00;70.80
51215;DHT22;63849;47.546;19.254;2023-03-01T06:30:42;4.10;71.10
51215;DHT22;63849;47.546;19.254;2023-03-01T06:33:08;4.00;71.10
51215;DHT22;63849;47.546;19.254;2023-03-01T06:35:34;4.10;70.70
51215;DHT22;63849;47.546;19.254;2023-03-01T06:38:03;4.10;71.00
51215;DHT22;63849;47.546;19.254;2023-03-01T06:40:32;4.30;70.10
51215;DHT22;63849;47.546;19.254;2023-03-01T06:43:00;4.40;69.80
51215;DHT22;63849;47.546;19.254;2023-03-01T06:45:26;4.30;69.70
51215;DHT22;63849;47.546;19.254;2023-03-01T06:48:07;4.30;69.60
51215;DHT22;63849;47.546;19.254;2023-03-01T06:50:34;4.30;69.40
51215;DHT22;63849;47.546;19.254;2023-03-01T06:53:02;4.40;69.50
51215;DHT22;63849;47.546;19.254;2023-03-01T06:55:29;4.40;69.30
51215;DHT22;63849;47.546;19.254;2023-03-01T06:57:56;4.70;68.50
51215;DHT22;63849;47.546;19.254;2023-03-01T07:00:23;4.70;68.70
51215;DHT22;63849;47.546;19.254;2023-03-01T07:02:48;4.60;68.20
51215;DHT22;63849;47.546;19.254;2023-03-01T07:05:16;4.70;68.10
51215;DHT22;63849;47.546;19.254;2023-03-01T07:07:42;4.80;67.70
51215;DHT22;63849;47.546;19.254;2023-03-01T07:10:09;4.80;67.60
51215;DHT22;63849;47.546;19.254;2023-03-01T07:12:35;4.80;67.70
51215;DHT22;63849;47.546;19.254;2023-03-01T07:15:04;4.80;67.50
51215;DHT22;63849;47.546;19.254;2023-03-01T07:17:32;4.80;66.70
51215;DHT22;63849;47.546;19.254;2023-03-01T07:19:57;5.00;66.30
51215;DHT22;63849;47.546;19.254;2023-03-01T07:22:24;5.30;66.20
51215;DHT22;63849;47.546;19.254;2023-03-01T07:24:50;5.10;66.40
51215;DHT22;63849;47.546;19.254;2023-03-01T07:27:22;5.30;66.40
51215;DHT22;63849;47.546;19.254;2023-03-01T07:29:48;5.30;65.30
51215;DHT22;63849;47.546;19.254;2023-03-01T07:32:13;5.30;65.30
51215;DHT22;63849;47.546;19.254;2023-03-01T07:34:39;5.30;65.90
51215;DHT22;63849;47.546;19.254;2023-03-01T07:37:05;5.30;65.80
51215;DHT22;63849;47.546;19.254;2023-03-01T07:39:31;5.30;65.20
51215;DHT22;63849;47.546;19.254;2023-03-01T07:42:02;5.40;64.80
51215;DHT22;63849;47.546;19.254;2023-03-01T07:44:28;5.60;65.00
51215;DHT22;63849;47.546;19.254;2023-03-01T07:46:54;5.80;63.30
51215;DHT22;63849;47.546;19.254;2023-03-01T07:49:22;5.90;63.40
51215;DHT22;63849;47.546;19.254;2023-03-01T07:51:48;6.10;61.40
51215;DHT22;63849;47.546;19.254;2023-03-01T07:54:15;6.10;62.30
51215;DHT22;63849;47.546;19.254;2023-03-01T07:56:41;6.10;61.70
51215;DHT22;63849;47.546;19.254;2023-03-01T07:59:07;6.40;60.50
51215;DHT22;63849;47.546;19.254;2023-03-01T08:01:33;6.50;60.40
51215;DHT22;63849;47.546;19.254;2023-03-01T08:04:03;6.50;59.60
51215;DHT22;63849;47.546;19.254;2023-03-01T08:06:35;6.60;60.90
51215;DHT22;63849;47.546;19.254;2023-03-01T08:09:01;6.80;59.30
51215;DHT22;63849;47.546;19.254;2023-03-01T08:11:26;6.80;59.10
51215;DHT22;63849;47.546;19.254;2023-03-01T08:13:54;6.90;59.00
51215;DHT22;63849;47.546;19.254;2023-03-01T08:16:20;6.90;59.30
51215;DHT22;63849;47.546;19.254;2023-03-01T08:18:45;7.00;58.80
51215;DHT22;63849;47.546;19.254;2023-03-01T08:21:17;7.40;58.50
51215;DHT22;63849;47.546;19.254;2023-03-01T08:23:43;7.30;57.70
51215;DHT22;63849;47.546;19.254;2023-03-01T08:26:28;7.50;57.60
51215;DHT22;63849;47.546;19.254;2023-03-01T08:28:53;7.80;57.70
51215;DHT22;63849;47.546;19.254;2023-03-01T08:31:26;7.90;56.40
51215;DHT22;63849;47.546;19.254;2023-03-01T08:33:56;8.00;55.80
51215;DHT22;63849;47.546;19.254;2023-03-01T08:36:27;7.80;57.00
51215;DHT22;63849;47.546;19.254;2023-03-01T08:38:56;7.80;56.90
51215;DHT22;63849;47.546;19.254;2023-03-01T08:41:28;7.70;57.40
51215;DHT22;63849;47.546;19.254;2023-03-01T08:43:54;7.20;58.80
51215;DHT22;63849;47.546;19.254;2023-03-01T08:46:36;7.30;58.50
51215;DHT22;63849;47.546;19.254;2023-03-01T08:49:14;7.50;58.80
51215;DHT22;63849;47.546;19.254;2023-03-01T08:51:40;7.10;59.20
51215;DHT22;63849;47.546;19.254;2023-03-01T08:54:11;7.00;59.20
51215;DHT22;63849;47.546;19.254;2023-03-01T08:56:38;7.00;59.50
51215;DHT22;63849;47.546;19.254;2023-03-01T08:59:05;7.10;59.30
51215;DHT22;63849;47.546;19.254;2023-03-01T09:01:33;7.30;59.00
51215;DHT22;63849;47.546;19.254;2023-03-01T09:04:02;7.40;60.00
51215;DHT22;63849;47.546;19.254;2023-03-01T09:06:30;7.30;58.80
51215;DHT22;63849;47.546;19.254;2023-03-01T09:09:00;7.30;58.40
51215;DHT22;63849;47.546;19.254;2023-03-01T09:11:27;7.30;59.30
51215;DHT22;63849;47.546;19.254;2023-03-01T09:13:55;7.60;59.60
51215;DHT22;63849;47.546;19.254;2023-03-01T09:16:21;7.80;58.40
51215;DHT22;63849;47.546;19.254;2023-03-01T09:18:52;7.90;58.10
51215;DHT22;63849;47.546;19.254;2023-03-01T09:21:34;7.70;58.40
51215;DHT22;63849;47.546;19.254;2023-03-01T09:24:03;7.60;58.00
51215;DHT22;63849;47.546;19.254;2023-03-01T09:26:29;7.70;57.30
51215;DHT22;63849;47.546;19.254;2023-03-01T09:28:59;8.00;56.50
51215;DHT22;63849;47.546;19.254;2023-03-01T09:31:25;7.90;56.00
51215;DHT22;63849;47.546;19.254;2023-03-01T09:33:52;7.90;57.10
51215;DHT22;63849;47.546;19.254;2023-03-01T09:36:22;7.80;55.70
51215;DHT22;63849;47.546;19.254;2023-03-01T09:38:49;7.80;56.30
51215;DHT22;63849;47.546;19.254;2023-03-01T09:43:53;7.70;56.10
51215;DHT22;63849;47.546;19.254;2023-03-01T09:46:27;7.80;56.10
51215;DHT22;63849;47.546;19.254;2023-03-01T09:48:58;7.70;55.60
51215;DHT22;63849;47.546;19.254;2023-03-01T09:51:33;7.70;56.60
51215;DHT22;63849;47.546;19.254;2023-03-01T09:54:04;7.60;55.90
51215;DHT22;63849;47.546;19.254;2023-03-01T09:56:36;7.70;56.90
51215;DHT22;63849;47.546;19.254;2023-03-01T10:02:00;7.80;55.00
51215;DHT22;63849;47.546;19.254;2023-03-01T10:04:49;7.80;56.10
51215;DHT22;63849;47.546;19.254;2023-03-01T10:10:00;8.20;55.60
51215;DHT22;63849;47.546;19.254;2023-03-01T10:12:41;8.20;56.30
51215;DHT22;63849;47.546;19.254;2023-03-01T10:15:22;8.10;55.30
51215;DHT22;63849;47.546;19.254;2023-03-01T10:17:57;8.10;55.30
51215;DHT22;63849;47.546;19.254;2023-03-01T10:23:19;8.10;56.20
51215;DHT22;63849;47.546;19.254;2023-03-01T10:31:42;8.30;56.10
51215;DHT22;63849;47.546;19.254;2023-03-01T10:34:35;8.20;56.10
51215;DHT22;63849;47.546;19.254;2023-03-01T10:39:56;8.40;56.40
51215;DHT22;63849;47.546;19.254;2023-03-01T10:42:40;8.40;56.30
51215;DHT22;63849;47.546;19.254;2023-03-01T10:45:42;8.60;56.70
51215;DHT22;63849;47.546;19.254;2023-03-01T10:51:15;8.60;56.10
51215;DHT22;63849;47.546;19.254;2023-03-01T10:53:50;8.60;56.40
51215;DHT22;63849;47.546;19.254;2023-03-01T10:56:22;8.60;57.00
51215;DHT22;63849;47.546;19.254;2023-03-01T10:59:03;8.60;57.00
51215;DHT22;63849;47.546;19.254;2023-03-01T11:01:34;8.70;56.90
51215;DHT22;63849;47.546;19.254;2023-03-01T11:06:32;8.80;57.00
51215;DHT22;63849;47.546;19.254;2023-03-01T11:09:22;8.90;56.80
51215;DHT22;63849;47.546;19.254;2023-03-01T11:11:59;8.90;57.40
51215;DHT22;63849;47.546;19.254;2023-03-01T11:14:34;8.80;57.00
51215;DHT22;63849;47.546;19.254;2023-03-01T11:17:02;8.80;56.10
51215;DHT22;63849;47.546;19.254;2023-03-01T11:19:31;8.80;55.90
51215;DHT22;63849;47.546;19.254;2023-03-01T11:22:17;8.80;57.00
51215;DHT22;63849;47.546;19.254;2023-03-01T11:24:52;8.90;56.10
51215;DHT22;63849;47.546;19.254;2023-03-01T11:27:28;9.10;56.00
51215;DHT22;63849;47.546;19.254;2023-03-01T11:30:07;9.20;55.60
51215;DHT22;63849;47.546;19.254;2023-03-01T11:35:32;9.20;55.70
51215;DHT22;63849;47.546;19.254;2023-03-01T11:43:19;9.20;55.40
51215;DHT22;63849;47.546;19.254;2023-03-01T11:54:40;9.40;55.30
51215;DHT22;63849;47.546;19.254;2023-03-01T12:25:25;9.70;54.60
51215;DHT22;63849;47.546;19.254;2023-03-01T12:38:59;9.90;54.30
51215;DHT22;63849;47.546;19.254;2023-03-01T12:41:46;9.80;54.10
51215;DHT22;63849;47.546;19.254;2023-03-01T12:47:39;9.80;54.90
51215;DHT22;63849;47.546;19.254;2023-03-01T12:50:21;9.80;54.00
51215;DHT22;63849;47.546;19.254;2023-03-01T12:53:04;9.60;54.50
51215;DHT22;63849;47.546;19.254;2023-03-01T12:55:38;9.50;55.50
51215;DHT22;63849;47.546;19.254;2023-03-01T12:58:13;9.60;54.90
51215;DHT22;63849;47.546;19.254;2023-03-01T13:06:53;9.80;55.10
51215;DHT22;63849;47.546;19.254;2023-03-01T13:09:34;9.80;54.60
51215;DHT22;63849;47.546;19.254;2023-03-01T13:12:02;9.80;54.70
51215;DHT22;63849;47.546;19.254;2023-03-01T13:17:00;9.80;54.20
51215;DHT22;63849;47.546;19.254;2023-03-01T13:19:27;9.60;55.70
51215;DHT22;63849;47.546;19.254;2023-03-01T13:22:39;9.70;54.90
51215;DHT22;63849;47.546;19.254;2023-03-01T13:25:15;9.70;54.90
51215;DHT22;63849;47.546;19.254;2023-03-01T13:27:42;9.70;55.30
51215;DHT22;63849;47.546;19.254;2023-03-01T13:35:57;9.80;55.10
51215;DHT22;63849;47.546;19.254;2023-03-01T13:38:48;9.80;55.90
51215;DHT22;63849;47.546;19.254;2023-03-01T13:44:30;9.90;55.80
51215;DHT22;63849;47.546;19.254;2023-03-01T13:49:52;9.80;55.80
51215;DHT22;63849;47.546;19.254;2023-03-01T13:52:38;9.80;56.10
51215;DHT22;63849;47.546;19.254;2023-03-01T13:57:41;9.90;54.90
51215;DHT22;63849;47.546;19.254;2023-03-01T14:00:38;9.90;54.60
51215;DHT22;63849;47.546;19.254;2023-03-01T14:03:19;9.90;54.90
51215;DHT22;63849;47.546;19.254;2023-03-01T14:12:02;9.90;54.90
51215;DHT22;63849;47.546;19.254;2023-03-01T14:18:14;9.90;55.60
51215;DHT22;63849;47.546;19.254;2023-03-01T14:20:44;9.80;55.20
51215;DHT22;63849;47.546;19.254;2023-03-01T14:23:23;9.90;55.30
51215;DHT22;63849;47.546;19.254;2023-03-01T14:25:51;9.90;54.90
51215;DHT22;63849;47.546;19.254;2023-03-01T14:28:30;9.90;54.80
51215;DHT22;63849;47.546;19.254;2023-03-01T14:30:58;9.80;55.10
51215;DHT22;63849;47.546;19.254;2023-03-01T14:33:34;9.70;55.10
51215;DHT22;63849;47.546;19.254;2023-03-01T14:36:13;9.70;55.20
51215;DHT22;63849;47.546;19.254;2023-03-01T14:38:46;9.80;54.90
51215;DHT22;63849;47.546;19.254;2023-03-01T14:41:15;9.90;54.40
51215;DHT22;63849;47.546;19.254;2023-03-01T14:43:45;9.90;54.30
51215;DHT22;63849;47.546;19.254;2023-03-01T14:46:33;9.80;54.40
51215;DHT22;63849;47.546;19.254;2023-03-01T14:49:15;9.90;53.90
51215;DHT22;63849;47.546;19.254;2023-03-01T14:51:47;9.80;53.90
51215;DHT22;63849;47.546;19.254;2023-03-01T14:54:27;9.80;54.10
51215;DHT22;63849;47.546;19.254;2023-03-01T14:56:59;9.80;54.20
51215;DHT22;63849;47.546;19.254;2023-03-01T14:59:28;9.70;54.30
51215;DHT22;63849;47.546;19.254;2023-03-01T15:01:58;9.60;54.60
51215;DHT22;63849;47.546;19.254;2023-03-01T15:04:26;9.70;54.40
51215;DHT22;63849;47.546;19.254;2023-03-01T15:06:54;9.80;54.40
51215;DHT22;63849;47.546;19.254;2023-03-01T15:09:21;9.80;54.20
51215;DHT22;63849;47.546;19.254;2023-03-01T15:11:47;9.80;54.20
51215;DHT22;63849;47.546;19.254;2023-03-01T15:14:39;9.60;54.50
51215;DHT22;63849;47.546;19.254;2023-03-01T15:17:26;9.60;55.00
51215;DHT22;63849;47.546;19.254;2023-03-01T15:19:56;9.50;55.40
51215;DHT22;63849;47.546;19.254;2023-03-01T15:22:26;9.50;55.60
51215;DHT22;63849;47.546;19.254;2023-03-01T15:24:53;9.40;55.30
51215;DHT22;63849;47.546;19.254;2023-03-01T15:27:24;9.40;55.20
51215;DHT22;63849;47.546;19.254;2023-03-01T15:29:53;9.50;55.10
51215;DHT22;63849;47.546;19.254;2023-03-01T15:32:36;9.40;55.20
51215;DHT22;63849;47.546;19.254;2023-03-01T15:35:41;9.40;55.30
51215;DHT22;63849;47.546;19.254;2023-03-01T15:40:57;9.30;55.50
51215;DHT22;63849;47.546;19.254;2023-03-01T15:43:45;9.30;55.20
51215;DHT22;63849;47.546;19.254;2023-03-01T15:46:28;9.20;55.70
51215;DHT22;63849;47.546;19.254;2023-03-01T15:48:58;9.10;56.20
51215;DHT22;63849;47.546;19.254;2023-03-01T15:51:33;9.00;56.90
51215;DHT22;63849;47.546;19.254;2023-03-01T15:54:12;8.80;57.10
51215;DHT22;63849;47.546;19.254;2023-03-01T15:56:42;8.80;57.10
51215;DHT22;63849;47.546;19.254;2023-03-01T15:59:13;8.80;57.50
51215;DHT22;63849;47.546;19.254;2023-03-01T16:01:44;8.60;57.80
51215;DHT22;63849;47.546;19.254;2023-03-01T16:04:15;8.60;57.90
51215;DHT22;63849;47.546;19.254;2023-03-01T16:06:53;8.40;58.40
51215;DHT22;63849;47.546;19.254;2023-03-01T16:09:26;8.40;58.80
51215;DHT22;63849;47.546;19.254;2023-03-01T16:11:53;8.40;58.50
51215;DHT22;63849;47.546;19.254;2023-03-01T16:14:19;8.30;59.10
51215;DHT22;63849;47.546;19.254;2023-03-01T16:16:46;8.20;59.10
51215;DHT22;63849;47.546;19.254;2023-03-01T16:19:14;8.10;59.50
51215;DHT22;63849;47.546;19.254;2023-03-01T16:21:42;8.00;59.60
51215;DHT22;63849;47.546;19.254;2023-03-01T16:24:09;7.90;60.20
51215;DHT22;63849;47.546;19.254;2023-03-01T16:26:36;7.80;60.80
51215;DHT22;63849;47.546;19.254;2023-03-01T16:29:04;7.80;61.00
51215;DHT22;63849;47.546;19.254;2023-03-01T16:31:29;7.70;61.10
51215;DHT22;63849;47.546;19.254;2023-03-01T16:33:57;7.60;61.40
51215;DHT22;63849;47.546;19.254;2023-03-01T16:36:25;7.60;61.50
51215;DHT22;63849;47.546;19.254;2023-03-01T16:38:52;7.60;61.30
51215;DHT22;63849;47.546;19.254;2023-03-01T16:41:22;7.50;61.70
51215;DHT22;63849;47.546;19.254;2023-03-01T16:43:48;7.50;61.60
51215;DHT22;63849;47.546;19.254;2023-03-01T16:46:17;7.40;61.90
51215;DHT22;63849;47.546;19.254;2023-03-01T16:48:43;7.30;62.10
51215;DHT22;63849;47.546;19.254;2023-03-01T16:51:09;7.30;62.20
51215;DHT22;63849;47.546;19.254;2023-03-01T16:53:37;7.30;62.50
51215;DHT22;63849;47.546;19.254;2023-03-01T16:56:05;7.20;62.40
51215;DHT22;63849;47.546;19.254;2023-03-01T16:58:32;7.10;62.60
51215;DHT22;63849;47.546;19.254;2023-03-01T17:01:10;7.10;62.70
51215;DHT22;63849;47.546;19.254;2023-03-01T17:03:37;7.00;62.90
51215;DHT22;63849;47.546;19.254;2023-03-01T17:06:04;6.90;63.30
51215;DHT22;63849;47.546;19.254;2023-03-01T17:08:31;6.80;63.40
51215;DHT22;63849;47.546;19.254;2023-03-01T17:11:12;6.80;63.30
51215;DHT22;63849;47.546;19.254;2023-03-01T17:13:39;6.90;63.10
51215;DHT22;63849;47.546;19.254;2023-03-01T17:16:06;6.90;63.30
51215;DHT22;63849;47.546;19.254;2023-03-01T17:18:33;6.80;63.30
51215;DHT22;63849;47.546;19.254;2023-03-01T17:20:59;6.80;63.40
51215;DHT22;63849;47.546;19.254;2023-03-01T17:23:25;6.70;63.60
51215;DHT22;63849;47.546;19.254;2023-03-01T17:25:52;6.80;63.60
51215;DHT22;63849;47.546;19.254;2023-03-01T17:28:23;6.60;63.70
51215;DHT22;63849;47.546;19.254;2023-03-01T17:30:49;6.60;64.20
51215;DHT22;63849;47.546;19.254;2023-03-01T17:33:16;6.40;64.50
51215;DHT22;63849;47.546;19.254;2023-03-01T17:35:42;6.50;64.40
51215;DHT22;63849;47.546;19.254;2023-03-01T17:38:14;6.40;64.60
51215;DHT22;63849;47.546;19.254;2023-03-01T17:40:41;6.40;64.70
51215;DHT22;63849;47.546;19.254;2023-03-01T17:43:08;6.40;64.60
51215;DHT22;63849;47.546;19.254;2023-03-01T17:45:36;6.30;64.60
51215;DHT22;63849;47.546;19.254;2023-03-01T17:48:04;6.40;64.70
51215;DHT22;63849;47.546;19.254;2023-03-01T17:50:30;6.30;64.60
51215;DHT22;63849;47.546;19.254;2023-03-01T17:52:56;6.30;64.60
51215;DHT22;63849;47.546;19.254;2023-03-01T17:55:23;6.30;64.70
51215;DHT22;63849;47.546;19.254;2023-03-01T17:57:49;6.20;64.80
51215;DHT22;63849;47.546;19.254;2023-03-01T18:00:16;6.20;64.90